createdAt,value
2022-10-02T00:01:58.641Z,2.00
2022-10-02T00:04:39.287Z,2.20
2022-10-02T00:07:07.360Z,2.22
2022-10-02T00:09:56.671Z,2.42
2022-10-02T00:12:24.392Z,2.20
2022-10-02T00:14:53.565Z,2.10
2022-10-02T00:17:26.359Z,2.20
2022-10-02T00:19:54.570Z,2.28
2022-10-02T00:22:48.034Z,2.22
2022-10-02T00:25:21.303Z,2.42
2022-10-02T00:28:07.199Z,2.45
2022-10-02T00:30:37.867Z,2.00
2022-10-02T00:33:22.101Z,2.00
2022-10-02T00:36:04.076Z,2.10
2022-10-02T00:38:39.713Z,2.35
2022-10-02T00:41:41.581Z,2.60
2022-10-02T00:48:01.260Z,2.30
2022-10-02T00:50:36.913Z,2.25
2022-10-02T00:53:28.819Z,2.20
2022-10-02T00:56:17.089Z,1.98
2022-10-02T00:59:05.565Z,2.17
2022-10-02T01:05:19.039Z,1.83
2022-10-02T01:07:47.195Z,1.70
2022-10-02T01:10:13.856Z,1.70
2022-10-02T01:12:40.634Z,2.15
2022-10-02T01:15:12.794Z,2.20
2022-10-02T01:17:39.369Z,1.98
2022-10-02T01:20:07.150Z,1.95
2022-10-02T01:22:33.644Z,1.95
2022-10-02T01:25:04.336Z,2.15
2022-10-02T01:27:30.994Z,2.00
2022-10-02T01:30:00.748Z,2.05
2022-10-02T01:32:28.601Z,2.42
2022-10-02T01:34:55.488Z,2.10
2022-10-02T01:37:25.740Z,1.90
2022-10-02T01:39:52.336Z,2.05
2022-10-02T01:42:19.631Z,1.90
2022-10-02T01:44:46.323Z,1.73
2022-10-02T01:47:23.760Z,1.92
2022-10-02T01:50:25.860Z,1.55
2022-10-02T01:52:58.432Z,1.83
2022-10-02T01:55:30.743Z,1.63
2022-10-02T01:58:06.417Z,1.60
2022-10-02T02:00:54.527Z,1.90
2022-10-02T02:03:24.058Z,1.50
2022-10-02T02:05:56.906Z,1.50
2022-10-02T02:08:50.401Z,1.50
2022-10-02T02:11:18.474Z,1.80
2022-10-02T02:13:45.907Z,1.60
2022-10-02T02:16:41.909Z,1.50
2022-10-02T02:19:11.098Z,1.90
2022-10-02T02:21:59.909Z,1.92
2022-10-02T02:24:29.155Z,1.95
2022-10-02T02:26:56.462Z,2.20
2022-10-02T02:33:33.136Z,2.00
2022-10-02T02:36:01.727Z,1.90
2022-10-02T02:38:32.939Z,1.90
2022-10-02T02:41:02.575Z,2.10
2022-10-02T02:47:22.636Z,2.03
2022-10-02T02:50:18.510Z,2.13
2022-10-02T02:55:20.689Z,1.80
2022-10-02T02:58:16.607Z,2.00
2022-10-02T03:00:43.240Z,2.20
2022-10-02T03:03:09.867Z,1.80
2022-10-02T03:05:37.143Z,2.05
2022-10-02T03:08:05.292Z,1.98
2022-10-02T03:10:41.059Z,2.13
2022-10-02T03:13:32.861Z,1.88
2022-10-02T03:16:56.780Z,2.20
2022-10-02T03:19:32.569Z,2.40
2022-10-02T03:22:04.803Z,2.22
2022-10-02T03:24:46.490Z,2.30
2022-10-02T03:27:35.022Z,2.58
2022-10-02T03:30:02.899Z,2.00
2022-10-02T03:32:29.537Z,2.20
2022-10-02T03:34:57.315Z,2.50
2022-10-02T03:37:27.635Z,1.98
2022-10-02T03:43:41.921Z,2.13
2022-10-02T03:46:08.568Z,2.00
2022-10-02T03:48:35.178Z,1.70
2022-10-02T03:51:01.766Z,2.00
2022-10-02T03:53:34.266Z,2.15
2022-10-02T03:56:08.950Z,1.90
2022-10-02T03:58:37.875Z,2.10
2022-10-02T04:01:06.222Z,2.10
2022-10-02T04:03:38.241Z,2.13
2022-10-02T04:06:09.771Z,2.20
2022-10-02T04:08:38.564Z,1.95
2022-10-02T04:12:00.655Z,1.75
2022-10-02T04:14:37.585Z,2.33
2022-10-02T04:17:15.599Z,1.95
2022-10-02T04:19:46.456Z,2.42
2022-10-02T04:22:39.896Z,2.10
2022-10-02T04:25:15.645Z,1.63
2022-10-02T04:31:23.097Z,1.92
2022-10-02T04:33:49.725Z,2.10
2022-10-02T04:36:40.165Z,2.47
2022-10-02T04:39:37.627Z,2.30
2022-10-02T04:42:32.065Z,2.30
2022-10-02T04:45:04.665Z,2.75
2022-10-02T04:47:57.995Z,2.75
2022-10-02T04:50:42.772Z,2.03
2022-10-02T04:53:24.594Z,2.20
2022-10-02T04:56:06.712Z,2.50
2022-10-02T04:58:59.593Z,2.97
2022-10-02T05:01:26.146Z,2.30
2022-10-02T05:03:52.621Z,2.17
2022-10-02T05:06:31.813Z,2.25
2022-10-02T05:09:22.355Z,2.30
2022-10-02T05:12:15.753Z,2.60
2022-10-02T05:14:49.699Z,2.70
2022-10-02T05:17:37.881Z,2.50
2022-10-02T05:20:19.545Z,2.38
2022-10-02T05:22:49.193Z,2.13
2022-10-02T05:26:00.154Z,2.17
2022-10-02T05:28:29.713Z,2.08
2022-10-02T05:31:12.562Z,1.90
2022-10-02T05:34:02.422Z,2.00
2022-10-02T05:37:07.994Z,2.13
2022-10-02T05:39:43.150Z,2.63
2022-10-02T05:42:21.884Z,2.10
2022-10-02T05:44:54.245Z,2.20
2022-10-02T05:47:47.221Z,1.90
2022-10-02T05:50:18.369Z,2.58
2022-10-02T05:53:14.213Z,2.08
2022-10-02T05:58:17.660Z,2.42
2022-10-02T06:00:58.584Z,1.90
2022-10-02T06:03:36.251Z,1.80
2022-10-02T06:06:24.056Z,2.05
2022-10-02T06:08:58.499Z,2.00
2022-10-02T06:11:38.897Z,1.80
2022-10-02T06:14:16.517Z,1.50
2022-10-02T06:16:56.004Z,1.83
2022-10-02T06:19:32.721Z,2.00
2022-10-02T06:22:37.804Z,1.50
2022-10-02T06:25:12.382Z,2.10
2022-10-02T06:27:44.250Z,1.92
2022-10-02T06:30:13.309Z,2.03
2022-10-02T06:36:55.133Z,1.90
2022-10-02T06:39:49.836Z,2.40
2022-10-02T06:42:29.676Z,1.85
2022-10-02T06:45:22.045Z,2.30
2022-10-02T06:48:05.924Z,1.80
2022-10-02T06:50:54.834Z,2.00
2022-10-02T06:53:28.959Z,2.38
2022-10-02T07:00:06.478Z,2.10
2022-10-02T07:02:53.409Z,2.15
2022-10-02T07:05:48.142Z,2.40
2022-10-02T07:08:23.622Z,2.22
2022-10-02T07:10:56.057Z,2.03
2022-10-02T07:13:58.991Z,1.60
2022-10-02T07:16:35.494Z,1.50
2022-10-02T07:19:41.486Z,1.80
2022-10-02T07:22:39.456Z,1.45
2022-10-02T07:25:10.356Z,1.65
2022-10-02T07:27:56.822Z,1.40
2022-10-02T07:30:23.620Z,1.88
2022-10-02T07:32:56.214Z,1.83
2022-10-02T07:35:44.815Z,1.70
2022-10-02T07:38:14.342Z,1.80
2022-10-02T07:41:02.666Z,1.35
2022-10-02T07:43:50.849Z,1.90
2022-10-02T07:46:38.649Z,1.58
2022-10-02T07:49:19.585Z,1.50
2022-10-02T07:51:55.539Z,1.58
2022-10-02T07:54:25.188Z,1.80
2022-10-02T07:56:52.363Z,1.45
2022-10-02T07:59:18.963Z,1.73
2022-10-02T08:01:46.266Z,1.30
2022-10-02T08:04:16.594Z,1.33
2022-10-02T08:06:45.128Z,1.52
2022-10-02T08:09:20.737Z,1.45
2022-10-02T08:11:58.055Z,1.10
2022-10-02T08:14:26.446Z,1.73
2022-10-02T08:16:54.177Z,1.45
2022-10-02T08:19:30.009Z,1.48
2022-10-02T08:21:59.465Z,1.13
2022-10-02T08:24:40.882Z,1.33
2022-10-02T08:27:16.274Z,1.33
2022-10-02T08:29:54.296Z,1.40
2022-10-02T08:32:22.593Z,1.67
2022-10-02T08:34:49.276Z,2.08
2022-10-02T08:37:42.683Z,1.45
2022-10-02T08:40:24.374Z,1.58
2022-10-02T08:43:06.598Z,1.73
2022-10-02T08:45:59.892Z,2.15
2022-10-02T08:49:03.505Z,1.80
2022-10-02T08:51:57.923Z,1.73
2022-10-02T08:54:35.119Z,1.95
2022-10-02T08:57:24.269Z,1.75
2022-10-02T09:00:45.858Z,1.65
2022-10-02T09:03:49.609Z,1.65
2022-10-02T09:06:19.331Z,1.90
2022-10-02T09:08:57.191Z,1.83
2022-10-02T09:12:14.553Z,1.85
2022-10-02T09:14:59.275Z,1.50
2022-10-02T09:17:45.520Z,1.77
2022-10-02T09:20:24.831Z,1.95
2022-10-02T09:22:57.323Z,1.50
2022-10-02T09:25:37.367Z,1.77
2022-10-02T09:28:07.013Z,1.75
2022-10-02T09:31:11.215Z,1.73
2022-10-02T09:33:50.608Z,2.22
2022-10-02T09:36:47.712Z,2.40
2022-10-02T09:39:51.850Z,1.73
2022-10-02T09:42:25.164Z,1.98
2022-10-02T09:49:08.992Z,1.53
2022-10-02T09:52:08.036Z,1.60
2022-10-02T09:55:08.828Z,1.60
2022-10-02T09:57:50.740Z,2.15
2022-10-02T10:00:42.137Z,2.58
2022-10-02T10:03:55.743Z,1.90
2022-10-02T10:06:25.756Z,1.83
2022-10-02T10:09:16.682Z,1.42
2022-10-02T10:12:11.201Z,1.65
2022-10-02T10:14:56.579Z,2.03
2022-10-02T10:20:09.925Z,1.83
2022-10-02T10:23:06.600Z,1.48
2022-10-02T10:25:58.627Z,2.45
2022-10-02T10:29:04.860Z,1.80
2022-10-02T10:31:56.137Z,1.75
2022-10-02T10:34:48.802Z,1.70
2022-10-02T10:38:09.456Z,1.50
2022-10-02T10:41:13.493Z,1.40
2022-10-02T10:43:52.079Z,1.67
2022-10-02T10:46:42.957Z,1.50
2022-10-02T10:49:38.701Z,1.50
2022-10-02T10:52:45.777Z,1.35
2022-10-02T10:55:35.544Z,1.80
2022-10-02T10:58:05.187Z,1.50
2022-10-02T11:00:56.395Z,1.83
2022-10-02T11:03:53.314Z,1.60
2022-10-02T11:13:01.213Z,1.83
2022-10-02T11:15:40.736Z,1.27
2022-10-02T11:18:22.174Z,1.30
2022-10-02T11:20:57.938Z,1.23
2022-10-02T11:23:39.838Z,1.20
2022-10-02T11:26:27.805Z,1.63
2022-10-02T11:29:11.017Z,1.42
2022-10-02T11:31:40.938Z,1.83
2022-10-02T11:34:26.523Z,1.50
2022-10-02T11:39:42.806Z,2.05
2022-10-02T11:42:57.624Z,1.52
2022-10-02T11:45:48.607Z,1.40
2022-10-02T11:48:24.121Z,1.50
2022-10-02T11:50:57.794Z,1.30
2022-10-02T11:53:32.178Z,1.30
2022-10-02T11:56:32.973Z,1.67
2022-10-02T11:59:28.420Z,2.33
2022-10-02T12:01:57.004Z,1.17
2022-10-02T12:04:35.523Z,1.17
2022-10-02T12:07:02.127Z,1.50
2022-10-02T12:09:50.731Z,1.00
2022-10-02T12:12:36.516Z,1.20
2022-10-02T12:15:09.494Z,1.33
2022-10-02T12:18:03.317Z,1.20
2022-10-02T12:21:24.243Z,1.60
2022-10-02T12:24:32.437Z,1.30
2022-10-02T12:27:15.989Z,1.52
2022-10-02T12:29:48.559Z,1.30
2022-10-02T12:32:29.312Z,1.20
2022-10-02T12:35:11.075Z,1.40
2022-10-02T12:37:55.787Z,1.17
2022-10-02T12:40:34.149Z,1.50
2022-10-02T12:43:28.354Z,1.63
2022-10-02T12:46:13.412Z,1.65
2022-10-02T12:48:45.868Z,1.45
2022-10-02T12:51:35.605Z,1.40
2022-10-02T12:54:24.328Z,1.50
2022-10-02T12:57:47.327Z,1.13
2022-10-02T13:00:18.313Z,1.73
2022-10-02T13:03:12.149Z,1.50
2022-10-02T13:05:53.808Z,1.45
2022-10-02T13:08:47.019Z,1.33
2022-10-02T13:11:31.878Z,1.13
2022-10-02T13:14:09.082Z,1.40
2022-10-02T13:16:44.778Z,1.67
2022-10-02T13:19:30.565Z,1.30
2022-10-02T13:22:07.423Z,1.23
2022-10-02T13:24:37.442Z,1.20
2022-10-02T13:27:31.358Z,1.50
2022-10-02T13:30:19.984Z,1.55
2022-10-02T13:32:58.734Z,1.50
2022-10-02T13:35:45.861Z,1.58
2022-10-02T13:38:33.188Z,1.42
2022-10-02T13:41:21.679Z,1.30
2022-10-02T13:44:03.518Z,1.50
2022-10-02T13:46:52.039Z,1.35
2022-10-02T13:49:33.546Z,1.60
2022-10-02T13:52:20.257Z,1.45
2022-10-02T13:55:26.217Z,1.60
2022-10-02T13:58:19.100Z,1.67
2022-10-02T14:00:53.266Z,1.58
2022-10-02T14:03:36.073Z,1.83
2022-10-02T14:06:29.339Z,1.80
2022-10-02T14:08:58.800Z,2.05
2022-10-02T14:12:03.748Z,1.60
2022-10-02T14:15:01.506Z,1.50
2022-10-02T14:17:52.200Z,1.30
2022-10-02T14:20:43.519Z,1.50
2022-10-02T14:23:47.817Z,1.70
2022-10-02T14:26:25.569Z,2.15
2022-10-02T14:28:58.327Z,2.00
2022-10-02T14:31:24.879Z,2.22
2022-10-02T14:34:01.976Z,1.83
2022-10-02T14:36:40.474Z,2.20
2022-10-02T14:39:32.217Z,2.03
2022-10-02T14:42:25.953Z,2.00
2022-10-02T14:45:31.669Z,1.73
2022-10-02T14:48:07.780Z,1.60
2022-10-02T14:51:01.751Z,1.80
2022-10-02T14:53:40.601Z,1.85
2022-10-02T14:56:17.810Z,1.92
2022-10-02T14:59:21.715Z,2.30
2022-10-02T15:02:08.785Z,2.30
2022-10-02T15:05:01.061Z,2.35
2022-10-02T15:07:30.204Z,1.60
2022-10-02T15:10:07.395Z,1.65
2022-10-02T15:12:43.774Z,1.85
2022-10-02T15:15:24.927Z,1.98
2022-10-02T15:18:11.722Z,2.00
2022-10-02T15:20:44.300Z,1.88
2022-10-02T15:23:12.673Z,1.80
2022-10-02T15:26:13.364Z,2.22
2022-10-02T15:29:04.922Z,1.90
2022-10-02T15:31:31.689Z,2.25
2022-10-02T15:34:04.645Z,2.17
2022-10-02T15:36:55.590Z,2.03
2022-10-02T15:39:46.678Z,2.03
2022-10-02T15:42:16.650Z,2.15
2022-10-02T15:44:58.986Z,2.10
2022-10-02T15:47:39.003Z,2.15
2022-10-02T15:50:25.988Z,2.10
2022-10-02T15:53:14.183Z,1.88
2022-10-02T15:55:42.656Z,2.13
2022-10-02T15:58:28.037Z,1.77
2022-10-02T16:06:15.422Z,2.30
2022-10-02T16:09:00.316Z,2.90
2022-10-02T16:11:40.227Z,2.10
2022-10-02T16:14:14.945Z,2.17
2022-10-02T16:16:42.022Z,1.52
2022-10-02T16:19:35.297Z,2.15
2022-10-02T16:22:18.211Z,2.30
2022-10-02T16:24:54.553Z,2.17
2022-10-02T16:27:46.301Z,3.72
2022-10-02T16:30:13.567Z,2.33
2022-10-02T16:32:46.046Z,2.78
2022-10-02T16:35:17.292Z,3.45
2022-10-02T16:37:48.045Z,2.17
2022-10-02T16:40:24.979Z,2.40
2022-10-02T16:42:57.953Z,3.10
2022-10-02T16:45:40.941Z,2.60
2022-10-02T16:48:17.186Z,2.72
2022-10-02T16:51:02.652Z,2.30
2022-10-02T16:53:30.667Z,2.38
2022-10-02T16:56:06.379Z,2.20
2022-10-02T16:58:43.070Z,2.00
2022-10-02T17:01:59.394Z,2.40
2022-10-02T17:05:09.039Z,2.00
2022-10-02T17:07:53.612Z,2.47
2022-10-02T17:10:23.017Z,2.60
2022-10-02T17:13:19.560Z,2.40
2022-10-02T17:15:48.962Z,2.33
2022-10-02T17:18:33.023Z,2.40
2022-10-02T17:21:20.146Z,2.40
2022-10-02T17:24:08.719Z,2.42
2022-10-02T17:26:44.076Z,3.05
2022-10-02T17:29:26.798Z,2.38
2022-10-02T17:31:55.000Z,3.63
2022-10-02T17:34:32.214Z,2.58
2022-10-02T17:37:13.962Z,2.92
2022-10-02T17:40:19.749Z,4.55
2022-10-02T17:42:55.306Z,10.27
2022-10-02T17:45:26.626Z,5.63
2022-10-02T17:48:15.558Z,3.17
2022-10-02T17:51:48.159Z,2.92
2022-10-02T17:54:52.964Z,3.65
2022-10-02T17:57:28.411Z,3.10
2022-10-02T18:00:08.952Z,3.47
2022-10-02T18:02:44.949Z,3.50
2022-10-02T18:05:37.361Z,3.67
2022-10-02T18:08:13.005Z,3.63
2022-10-02T18:10:57.789Z,3.63
2022-10-02T18:13:49.113Z,3.10
2022-10-02T18:16:24.113Z,3.60
2022-10-02T18:22:23.566Z,3.22
2022-10-02T18:25:29.772Z,3.47
2022-10-02T18:30:23.739Z,3.80
2022-10-02T19:04:33.502Z,4.60
2022-10-02T19:07:04.700Z,4.10
2022-10-02T19:09:31.360Z,4.18
2022-10-02T19:12:17.067Z,3.83
2022-10-02T19:14:48.021Z,3.70
2022-10-02T19:17:26.114Z,4.15
2022-10-02T19:19:53.546Z,3.65
2022-10-02T19:22:26.285Z,4.13
2022-10-02T19:25:16.494Z,4.80
2022-10-02T19:27:56.643Z,3.42
2022-10-02T19:30:26.335Z,4.00
2022-10-02T19:32:54.964Z,3.80
2022-10-02T19:35:28.480Z,3.38
2022-10-02T19:38:00.828Z,3.10
2022-10-02T19:40:33.400Z,3.38
2022-10-02T19:43:05.666Z,3.20
2022-10-02T19:45:33.256Z,3.70
2022-10-02T19:48:04.933Z,3.00
2022-10-02T19:50:42.055Z,3.30
2022-10-02T19:54:04.954Z,3.20
2022-10-02T19:56:41.501Z,3.00
2022-10-02T19:59:16.238Z,2.75
2022-10-02T20:01:49.879Z,2.70
2022-10-02T20:04:18.925Z,3.00
2022-10-02T20:06:48.466Z,2.97
2022-10-02T20:09:17.948Z,3.08
2022-10-02T20:11:46.639Z,2.53
2022-10-02T20:14:30.144Z,2.85
2022-10-02T20:17:09.070Z,2.75
2022-10-02T20:20:27.577Z,2.80
2022-10-02T20:22:57.771Z,2.75
2022-10-02T20:25:44.874Z,2.80
2022-10-02T20:28:17.638Z,3.00
2022-10-02T20:30:46.501Z,2.97
2022-10-02T20:33:40.609Z,3.05
2022-10-02T20:36:17.120Z,2.50
2022-10-02T20:39:15.955Z,2.75
2022-10-02T20:42:41.108Z,3.35
2022-10-02T20:45:11.804Z,2.80
2022-10-02T20:48:03.181Z,3.60
2022-10-02T20:50:40.661Z,3.30
2022-10-02T20:57:15.742Z,3.10
2022-10-02T20:59:51.627Z,3.40
2022-10-02T21:02:40.093Z,3.40
2022-10-02T21:05:40.077Z,3.80
2022-10-02T21:08:13.828Z,3.50
2022-10-02T21:10:45.211Z,3.88
2022-10-02T21:13:14.645Z,4.07
2022-10-02T21:16:13.977Z,3.80
2022-10-02T21:18:53.297Z,3.40
2022-10-02T21:21:39.548Z,4.40
2022-10-02T21:24:37.068Z,3.95
2022-10-02T21:27:15.821Z,3.97
2022-10-02T21:29:48.379Z,4.45
2022-10-02T21:36:17.215Z,4.68
2022-10-02T21:38:52.955Z,4.18
2022-10-02T21:41:40.936Z,3.63
2022-10-02T21:44:29.195Z,4.22
2022-10-02T21:47:05.103Z,4.28
2022-10-02T21:49:49.287Z,4.07
2022-10-02T21:52:37.692Z,3.97
2022-10-02T21:55:12.910Z,4.35
2022-10-02T21:58:22.297Z,4.82
2022-10-02T22:00:59.524Z,4.75
2022-10-02T22:03:47.447Z,4.68
2022-10-02T22:06:20.162Z,4.70
2022-10-02T22:08:59.427Z,4.90
2022-10-02T22:11:38.352Z,5.00
2022-10-02T22:14:13.518Z,5.45
2022-10-02T22:19:40.589Z,5.20
2022-10-02T22:22:10.105Z,5.32
2022-10-02T22:25:04.142Z,6.03
2022-10-02T22:27:30.602Z,6.07
2022-10-02T22:29:57.355Z,5.63
2022-10-02T22:33:04.636Z,6.03
2022-10-02T22:36:08.399Z,5.10
2022-10-02T22:38:40.462Z,4.72
2022-10-02T22:41:16.283Z,6.32
2022-10-02T22:43:57.307Z,4.95
2022-10-02T22:46:41.302Z,5.43
2022-10-02T22:49:32.747Z,5.53
2022-10-02T22:52:04.925Z,5.65
2022-10-02T22:54:39.043Z,5.00
2022-10-02T22:57:32.894Z,5.30
2022-10-02T23:00:02.254Z,4.38
2022-10-02T23:02:34.258Z,6.15
2022-10-02T23:05:34.127Z,4.93
2022-10-02T23:08:11.672Z,5.30
2022-10-02T23:10:38.178Z,5.40
2022-10-02T23:13:38.703Z,5.18
2022-10-02T23:16:08.660Z,5.72
2022-10-02T23:18:50.370Z,5.18
2022-10-02T23:21:41.893Z,4.88
2022-10-02T23:24:47.962Z,5.55
2022-10-02T23:27:26.384Z,6.35
2022-10-02T23:29:59.998Z,6.00
2022-10-02T23:32:35.561Z,6.05
2022-10-02T23:35:13.823Z,6.50
2022-10-02T23:37:55.742Z,5.32
2022-10-02T23:41:14.469Z,6.18
2022-10-02T23:44:12.441Z,5.47
2022-10-02T23:47:02.638Z,5.60
2022-10-02T23:49:41.674Z,7.03
2022-10-02T23:52:41.240Z,6.97
2022-10-02T23:55:23.978Z,6.70
2022-10-02T23:57:50.597Z,7.20
